createdAt,value
2018-01-10T00:00:58.171Z,6.00
2018-01-10T00:01:58.148Z,6.00
2018-01-10T00:02:58.115Z,5.50
2018-01-10T00:03:58.092Z,6.70
2018-01-10T00:04:58.065Z,6.50
2018-01-10T00:05:58.038Z,5.80
2018-01-10T00:06:58.011Z,5.70
2018-01-10T00:07:57.981Z,5.60
2018-01-10T00:08:57.957Z,6.00
2018-01-10T00:09:57.927Z,6.00
2018-01-10T00:10:57.900Z,6.20
2018-01-10T00:11:57.868Z,5.70
2018-01-10T00:12:57.846Z,6.20
2018-01-10T00:13:57.824Z,5.60
2018-01-10T00:14:57.795Z,6.00
2018-01-10T00:15:57.764Z,5.30
2018-01-10T00:16:57.740Z,5.40
2018-01-10T00:17:57.710Z,6.10
2018-01-10T00:18:57.689Z,5.90
2018-01-10T00:19:57.658Z,5.10
2018-01-10T00:20:57.629Z,6.20
2018-01-10T00:21:57.606Z,5.50
2018-01-10T00:22:57.581Z,6.00
2018-01-10T00:23:57.553Z,5.00
2018-01-10T00:24:57.528Z,5.50
2018-01-10T00:25:57.504Z,5.50
2018-01-10T00:26:57.471Z,4.90
2018-01-10T00:27:57.448Z,5.80
2018-01-10T00:28:57.422Z,5.20
2018-01-10T00:29:57.390Z,6.10
2018-01-10T00:30:57.369Z,5.70
2018-01-10T00:31:57.337Z,5.50
2018-01-10T00:32:57.310Z,5.60
2018-01-10T00:33:57.289Z,6.00
2018-01-10T00:34:57.261Z,5.80
2018-01-10T00:35:57.235Z,6.00
2018-01-10T00:36:57.212Z,6.50
2018-01-10T00:37:57.183Z,5.60
2018-01-10T00:38:57.153Z,6.20
2018-01-10T00:39:57.130Z,5.70
2018-01-10T00:40:57.102Z,5.90
2018-01-10T00:41:57.076Z,5.30
2018-01-10T00:42:57.050Z,5.00
2018-01-10T00:43:57.019Z,5.30
2018-01-10T00:44:57.005Z,5.30
2018-01-10T00:45:56.968Z,6.30
2018-01-10T00:46:56.939Z,5.40
2018-01-10T00:47:56.917Z,5.50
2018-01-10T00:48:56.889Z,5.70
2018-01-10T00:49:56.864Z,5.10
2018-01-10T00:50:56.834Z,5.60
2018-01-10T00:51:56.809Z,5.70
2018-01-10T00:52:56.784Z,5.40
2018-01-10T00:53:56.756Z,5.30
2018-01-10T00:54:56.731Z,5.40
2018-01-10T00:55:56.702Z,5.40
2018-01-10T00:56:56.675Z,5.80
2018-01-10T00:57:56.653Z,5.90
2018-01-10T00:58:56.623Z,5.70
2018-01-10T00:59:56.597Z,5.00
2018-01-10T01:00:56.615Z,5.50
2018-01-10T01:01:56.541Z,5.50
2018-01-10T01:02:56.514Z,5.40
2018-01-10T01:03:56.492Z,5.50
2018-01-10T01:04:56.468Z,5.60
2018-01-10T01:05:56.437Z,5.60
2018-01-10T01:06:56.410Z,5.50
2018-01-10T01:07:56.383Z,5.60
2018-01-10T01:08:56.358Z,5.50
2018-01-10T01:09:56.332Z,5.10
2018-01-10T01:10:56.300Z,5.60
2018-01-10T01:11:56.278Z,5.50
2018-01-10T01:12:56.255Z,5.30
2018-01-10T01:13:56.224Z,5.20
2018-01-10T01:14:56.200Z,5.20
2018-01-10T01:15:56.171Z,5.30
2018-01-10T01:16:56.150Z,5.00
2018-01-10T01:17:56.122Z,5.60
2018-01-10T01:18:56.095Z,5.10
2018-01-10T01:19:56.069Z,5.00
2018-01-10T01:20:56.049Z,5.10
2018-01-10T01:21:56.012Z,5.30
2018-01-10T01:22:55.991Z,5.40
2018-01-10T01:23:55.961Z,5.10
2018-01-10T01:24:55.939Z,5.30
2018-01-10T01:25:55.908Z,5.40
2018-01-10T01:26:55.882Z,5.00
2018-01-10T01:27:55.856Z,5.10
2018-01-10T01:28:55.834Z,4.70
2018-01-10T01:29:55.800Z,6.00
2018-01-10T01:30:55.775Z,6.40
2018-01-10T01:31:55.754Z,6.10
2018-01-10T01:32:55.723Z,5.70
2018-01-10T01:33:55.701Z,5.40
2018-01-10T01:34:55.672Z,6.10
2018-01-10T01:35:55.648Z,5.40
2018-01-10T01:36:55.618Z,5.60
2018-01-10T01:37:55.598Z,5.90
2018-01-10T01:38:55.568Z,5.50
2018-01-10T01:39:55.586Z,5.50
2018-01-10T01:40:55.516Z,5.70
2018-01-10T01:41:55.494Z,5.30
2018-01-10T01:42:55.462Z,5.20
2018-01-10T01:43:55.440Z,5.40
2018-01-10T01:44:55.410Z,5.20
2018-01-10T01:45:55.389Z,5.40
2018-01-10T01:46:55.357Z,5.30
2018-01-10T01:47:55.334Z,5.20
2018-01-10T01:48:55.311Z,5.50
2018-01-10T01:49:55.283Z,5.50
2018-01-10T01:50:55.252Z,5.20
2018-01-10T01:51:55.229Z,6.00
2018-01-10T01:52:55.203Z,6.20
2018-01-10T01:53:55.173Z,5.40
2018-01-10T01:54:55.147Z,5.10
2018-01-10T01:55:55.125Z,5.50
2018-01-10T01:56:55.098Z,5.40
2018-01-10T01:57:55.073Z,5.60
2018-01-10T01:58:55.044Z,5.50
2018-01-10T01:59:55.019Z,5.20
2018-01-10T02:00:54.997Z,5.50
2018-01-10T02:01:54.965Z,5.90
2018-01-10T02:02:54.936Z,5.40
2018-01-10T02:03:54.915Z,5.70
2018-01-10T02:04:54.890Z,5.10
2018-01-10T02:05:54.865Z,5.70
2018-01-10T02:06:54.836Z,5.80
2018-01-10T02:07:54.806Z,5.00
2018-01-10T02:08:54.784Z,5.50
2018-01-10T02:09:54.752Z,5.00
2018-01-10T02:10:54.731Z,5.70
2018-01-10T02:11:54.701Z,5.30
2018-01-10T02:12:54.676Z,5.70
2018-01-10T02:13:54.652Z,5.70
2018-01-10T02:14:54.628Z,5.30
2018-01-10T02:15:54.596Z,5.90
2018-01-10T02:16:54.571Z,5.90
2018-01-10T02:17:54.547Z,5.90
2018-01-10T02:18:54.532Z,6.10
2018-01-10T02:19:54.491Z,5.40
2018-01-10T02:20:54.465Z,6.40
2018-01-10T02:21:54.443Z,4.80
2018-01-10T02:22:54.420Z,6.10
2018-01-10T02:23:54.390Z,6.10
2018-01-10T02:24:54.363Z,5.90
2018-01-10T02:25:54.336Z,4.90
2018-01-10T02:26:54.308Z,5.70
2018-01-10T02:27:54.286Z,5.60
2018-01-10T02:28:54.255Z,6.00
2018-01-10T02:29:54.228Z,5.80
2018-01-10T02:30:54.208Z,6.10
2018-01-10T02:31:54.182Z,5.70
2018-01-10T02:32:54.154Z,5.90
2018-01-10T02:33:54.125Z,6.10
2018-01-10T02:34:54.096Z,5.60
2018-01-10T02:35:54.074Z,5.80
2018-01-10T02:36:54.049Z,6.30
2018-01-10T02:37:54.019Z,5.80
2018-01-10T02:38:53.994Z,5.80
2018-01-10T02:39:53.966Z,5.50
2018-01-10T02:40:53.940Z,6.20
2018-01-10T02:41:53.918Z,5.70
2018-01-10T02:42:53.890Z,6.50
2018-01-10T02:43:53.860Z,5.90
2018-01-10T02:44:53.837Z,5.60
2018-01-10T02:45:53.809Z,5.40
2018-01-10T02:46:53.784Z,5.70
2018-01-10T02:47:53.754Z,6.30
2018-01-10T02:48:53.733Z,6.00
2018-01-10T02:49:53.702Z,5.90
2018-01-10T02:50:53.675Z,5.40
2018-01-10T02:51:53.650Z,5.20
2018-01-10T02:52:53.621Z,5.70
2018-01-10T02:53:53.600Z,6.40
2018-01-10T02:54:53.574Z,6.30
2018-01-10T02:55:53.543Z,5.50
2018-01-10T02:56:53.523Z,5.40
2018-01-10T02:57:53.491Z,5.70
2018-01-10T02:58:53.464Z,5.30
2018-01-10T02:59:53.444Z,5.20
2018-01-10T03:00:53.414Z,6.70
2018-01-10T03:01:53.390Z,5.90
2018-01-10T03:02:53.360Z,5.70
2018-01-10T03:03:53.337Z,5.20
2018-01-10T03:04:53.308Z,5.40
2018-01-10T03:05:53.286Z,5.70
2018-01-10T03:06:53.261Z,5.60
2018-01-10T03:07:53.231Z,5.80
2018-01-10T03:08:53.205Z,6.00
2018-01-10T03:09:53.176Z,5.40
2018-01-10T03:10:53.150Z,5.70
2018-01-10T03:11:53.122Z,5.50
2018-01-10T03:12:53.102Z,6.30
2018-01-10T03:13:53.075Z,5.70
2018-01-10T03:14:53.047Z,5.20
2018-01-10T03:15:53.016Z,6.00
2018-01-10T03:16:53.026Z,5.00
2018-01-10T03:17:52.970Z,6.30
2018-01-10T03:18:52.942Z,5.30
2018-01-10T03:19:52.915Z,5.90
2018-01-10T03:20:52.889Z,5.80
2018-01-10T03:21:52.860Z,5.30
2018-01-10T03:22:52.838Z,5.60
2018-01-10T03:23:52.806Z,5.60
2018-01-10T03:24:52.788Z,6.00
2018-01-10T03:25:52.754Z,5.50
2018-01-10T03:26:52.726Z,5.70
2018-01-10T03:27:52.707Z,6.20
2018-01-10T03:28:52.675Z,5.50
2018-01-10T03:29:52.651Z,5.60
2018-01-10T03:30:52.622Z,5.10
2018-01-10T03:31:52.599Z,6.00
2018-01-10T03:32:52.568Z,5.20
2018-01-10T03:33:52.561Z,6.20
2018-01-10T03:34:52.516Z,5.90
2018-01-10T03:35:52.488Z,5.60
2018-01-10T03:36:53.145Z,6.00
2018-01-10T03:37:52.952Z,6.10
2018-01-10T03:38:52.414Z,5.30
2018-01-10T03:39:52.388Z,5.50
2018-01-10T03:40:52.367Z,5.40
2018-01-10T03:41:52.331Z,5.70
2018-01-10T03:42:52.306Z,4.90
2018-01-10T03:43:52.280Z,5.60
2018-01-10T03:44:52.254Z,5.60
2018-01-10T03:45:52.232Z,5.80
2018-01-10T03:46:52.200Z,4.60
2018-01-10T03:47:52.174Z,5.90
2018-01-10T03:48:52.146Z,5.10
2018-01-10T03:49:52.127Z,4.90
2018-01-10T03:50:52.101Z,5.70
2018-01-10T03:51:52.072Z,5.50
2018-01-10T03:52:52.047Z,5.70
2018-01-10T03:53:52.022Z,5.20
2018-01-10T03:54:51.994Z,5.30
2018-01-10T03:55:51.963Z,5.30
2018-01-10T03:56:51.937Z,5.20
2018-01-10T03:57:51.914Z,5.60
2018-01-10T03:58:51.889Z,5.40
2018-01-10T03:59:51.860Z,5.80
2018-01-10T04:00:51.835Z,5.10
2018-01-10T04:01:51.804Z,5.40
2018-01-10T04:02:51.780Z,6.30
2018-01-10T04:03:51.756Z,5.30
2018-01-10T04:04:51.729Z,5.20
2018-01-10T04:05:51.700Z,5.20
2018-01-10T04:06:51.673Z,5.50
2018-01-10T04:07:51.653Z,5.00
2018-01-10T04:08:51.622Z,5.30
2018-01-10T04:09:51.597Z,5.50
2018-01-10T04:10:51.569Z,5.50
2018-01-10T04:11:51.546Z,5.70
2018-01-10T04:12:51.515Z,6.00
2018-01-10T04:14:51.469Z,5.20
2018-01-10T04:15:51.435Z,6.60
2018-01-10T04:16:51.409Z,5.30
2018-01-10T04:17:51.385Z,5.30
2018-01-10T04:18:52.091Z,5.40
2018-01-10T04:19:51.331Z,5.20
2018-01-10T04:20:51.304Z,5.40
2018-01-10T04:21:51.295Z,5.00
2018-01-10T04:22:51.252Z,5.20
2018-01-10T04:23:51.231Z,5.60
2018-01-10T04:25:51.177Z,5.60
2018-01-10T04:26:51.154Z,5.00
2018-01-10T04:27:51.120Z,5.30
2018-01-10T04:28:51.095Z,5.30
2018-01-10T04:29:51.066Z,5.60
2018-01-10T04:30:51.043Z,5.60
2018-01-10T04:31:51.066Z,4.90
2018-01-10T04:32:50.992Z,4.80
2018-01-10T04:33:50.960Z,5.40
2018-01-10T04:34:50.940Z,5.70
2018-01-10T04:35:50.909Z,5.10
2018-01-10T04:36:50.889Z,5.70
2018-01-10T04:37:50.855Z,5.00
2018-01-10T04:38:50.834Z,4.90
2018-01-10T04:39:50.805Z,4.70
2018-01-10T04:40:50.781Z,5.50
2018-01-10T04:41:50.751Z,5.20
2018-01-10T04:42:50.728Z,6.00
2018-01-10T04:43:50.704Z,5.20
2018-01-10T04:44:50.672Z,4.90
2018-01-10T04:45:50.651Z,5.40
2018-01-10T04:46:50.624Z,4.80
2018-01-10T04:47:50.594Z,5.60
2018-01-10T04:48:50.568Z,5.70
2018-01-10T04:49:50.545Z,6.00
2018-01-10T04:50:50.519Z,5.70
2018-01-10T04:51:50.488Z,5.40
2018-01-10T04:52:50.467Z,5.30
2018-01-10T04:53:50.439Z,5.40
2018-01-10T04:54:50.414Z,5.40
2018-01-10T04:55:50.387Z,4.40
2018-01-10T04:56:50.361Z,5.50
2018-01-10T04:57:50.334Z,4.90
2018-01-10T04:58:50.309Z,5.10
2018-01-10T04:59:50.288Z,5.80
2018-01-10T05:00:50.255Z,5.00
2018-01-10T05:01:50.227Z,5.10
2018-01-10T05:02:50.198Z,5.40
2018-01-10T05:03:50.178Z,5.50
2018-01-10T05:04:50.154Z,5.10
2018-01-10T05:05:50.124Z,5.50
2018-01-10T05:06:50.100Z,5.20
2018-01-10T05:07:50.073Z,5.50
2018-01-10T05:08:50.046Z,5.40
2018-01-10T05:09:50.016Z,5.20
2018-01-10T05:10:50.001Z,5.30
2018-01-10T05:11:49.973Z,4.80
2018-01-10T05:12:51.410Z,5.00
2018-01-10T05:13:49.911Z,5.30
2018-01-10T05:14:49.886Z,5.60
2018-01-10T05:15:49.859Z,5.50
2018-01-10T05:16:49.839Z,4.70
2018-01-10T05:17:49.814Z,5.70
2018-01-10T05:18:49.787Z,4.80
2018-01-10T05:19:49.755Z,5.20
2018-01-10T05:20:49.733Z,5.50
2018-01-10T05:21:49.704Z,5.50
2018-01-10T05:22:49.681Z,4.90
2018-01-10T05:23:49.650Z,5.20
2018-01-10T05:24:49.630Z,4.60
2018-01-10T05:25:49.602Z,5.10
2018-01-10T05:26:49.577Z,5.00
2018-01-10T05:27:49.547Z,5.00
2018-01-10T05:28:49.525Z,4.80
2018-01-10T05:29:49.495Z,5.10
2018-01-10T05:30:49.468Z,5.30
2018-01-10T05:31:49.442Z,5.70
2018-01-10T05:32:49.420Z,5.70
2018-01-10T05:33:49.392Z,5.90
2018-01-10T05:34:49.369Z,5.20
2018-01-10T05:35:49.341Z,5.90
2018-01-10T05:36:49.313Z,5.60
2018-01-10T05:37:49.292Z,5.50
2018-01-10T05:38:49.257Z,5.20
2018-01-10T05:39:49.239Z,5.50
2018-01-10T05:40:49.210Z,6.30
2018-01-10T05:41:49.190Z,4.90
2018-01-10T05:42:49.156Z,4.60
2018-01-10T05:43:49.135Z,5.80
2018-01-10T05:44:49.108Z,4.80
2018-01-10T05:45:49.090Z,5.70
2018-01-10T05:46:49.056Z,5.50
2018-01-10T05:47:49.029Z,5.60
2018-01-10T05:48:49.005Z,5.00
2018-01-10T05:49:48.981Z,5.00
2018-01-10T05:50:48.954Z,5.40
2018-01-10T05:51:48.931Z,5.50
2018-01-10T05:52:48.901Z,5.20
2018-01-10T05:53:48.874Z,6.20
2018-01-10T05:54:48.851Z,5.00
2018-01-10T05:55:48.820Z,5.10
2018-01-10T05:56:48.796Z,5.80
2018-01-10T05:57:48.776Z,5.20
2018-01-10T05:58:48.750Z,5.60
2018-01-10T05:59:48.717Z,5.60
2018-01-10T06:00:48.692Z,5.80
2018-01-10T06:01:48.665Z,5.60
2018-01-10T06:02:48.640Z,5.70
2018-01-10T06:03:48.616Z,5.70
2018-01-10T06:04:48.606Z,5.70
2018-01-10T06:05:48.565Z,5.60
2018-01-10T06:06:48.535Z,5.20
2018-01-10T06:07:48.510Z,5.10
2018-01-10T06:08:48.491Z,5.10
2018-01-10T06:09:48.458Z,5.80
2018-01-10T06:10:48.430Z,5.10
2018-01-10T06:11:48.407Z,5.10
2018-01-10T06:12:48.385Z,5.60
2018-01-10T06:13:48.354Z,5.40
2018-01-10T06:14:48.328Z,5.60
2018-01-10T06:15:48.305Z,4.70
2018-01-10T06:16:48.279Z,4.80
2018-01-10T06:17:48.249Z,5.50
2018-01-10T06:18:48.227Z,5.90
2018-01-10T06:19:48.197Z,5.20
2018-01-10T06:20:48.174Z,5.30
2018-01-10T06:21:48.146Z,5.50
2018-01-10T06:22:48.126Z,5.80
2018-01-10T06:23:48.093Z,5.20
2018-01-10T06:24:48.068Z,4.90
2018-01-10T06:25:48.043Z,5.40
2018-01-10T06:26:48.021Z,5.60
2018-01-10T06:27:47.991Z,5.00
2018-01-10T06:28:47.967Z,4.80
2018-01-10T06:29:47.941Z,5.30
2018-01-10T06:30:47.922Z,5.60
2018-01-10T06:31:47.887Z,5.10
2018-01-10T06:32:47.866Z,5.00
2018-01-10T06:33:47.837Z,5.10
2018-01-10T06:34:47.811Z,5.60
2018-01-10T06:35:47.786Z,5.30
2018-01-10T06:36:47.761Z,5.50
2018-01-10T06:37:47.735Z,5.20
2018-01-10T06:38:47.702Z,5.40
2018-01-10T06:39:47.685Z,5.40
2018-01-10T06:40:47.661Z,5.60
2018-01-10T06:41:47.636Z,5.00
2018-01-10T06:42:47.601Z,5.10
2018-01-10T06:43:47.580Z,6.30
2018-01-10T06:44:47.551Z,8.40
2018-01-10T06:45:47.531Z,9.50
2018-01-10T06:46:47.498Z,6.20
2018-01-10T06:47:47.477Z,10.10
2018-01-10T06:48:47.444Z,10.90
2018-01-10T06:49:47.422Z,22.70
2018-01-10T06:50:47.395Z,16.00
2018-01-10T06:51:47.378Z,15.60
2018-01-10T06:52:47.347Z,15.10
2018-01-10T06:53:47.322Z,17.70
2018-01-10T06:54:47.290Z,19.10
2018-01-10T06:55:47.263Z,13.20
2018-01-10T06:56:47.240Z,7.20
2018-01-10T06:57:47.213Z,10.70
2018-01-10T06:58:47.186Z,15.00
2018-01-10T06:59:47.160Z,14.50
2018-01-10T07:00:47.135Z,14.50
2018-01-10T07:01:47.119Z,15.70
2018-01-10T07:02:47.108Z,13.90
2018-01-10T07:03:47.053Z,12.00
2018-01-10T07:04:47.064Z,7.70
2018-01-10T07:05:47.010Z,9.50
2018-01-10T07:06:46.983Z,8.50
2018-01-10T07:07:46.957Z,15.10
2018-01-10T07:08:46.934Z,16.80
2018-01-10T07:09:46.901Z,10.70
2018-01-10T07:10:46.876Z,10.50
2018-01-10T07:11:46.860Z,9.50
2018-01-10T07:12:46.825Z,12.90
2018-01-10T07:13:46.806Z,17.70
2018-01-10T07:14:46.771Z,28.40
2018-01-10T07:15:46.749Z,22.90
2018-01-10T07:16:46.722Z,27.00
2018-01-10T07:17:46.692Z,7.40
2018-01-10T07:18:46.662Z,33.30
2018-01-10T07:19:46.645Z,34.70
2018-01-10T07:20:46.620Z,31.10
2018-01-10T07:21:46.591Z,43.20
2018-01-10T07:22:46.564Z,9.30
2018-01-10T07:23:46.543Z,10.60
2018-01-10T07:24:46.522Z,24.10
2018-01-10T07:25:46.487Z,23.60
2018-01-10T07:26:46.459Z,27.40
2018-01-10T07:27:46.440Z,28.50
2018-01-10T07:28:46.413Z,5.10
2018-01-10T07:29:46.388Z,14.80
2018-01-10T07:30:46.356Z,22.10
2018-01-10T07:31:46.336Z,13.50
2018-01-10T07:32:46.308Z,9.00
2018-01-10T07:33:46.277Z,18.40
2018-01-10T07:34:46.832Z,5.20
2018-01-10T07:35:46.788Z,21.30
2018-01-10T07:36:46.210Z,6.10
2018-01-10T07:37:46.179Z,20.90
2018-01-10T07:38:46.152Z,14.90
2018-01-10T07:39:46.125Z,28.20
2018-01-10T07:40:46.099Z,26.20
2018-01-10T07:41:46.077Z,22.90
2018-01-10T07:42:46.050Z,11.90
2018-01-10T07:43:46.022Z,17.10
2018-01-10T07:44:45.996Z,22.90
2018-01-10T07:45:45.975Z,35.30
2018-01-10T07:46:45.946Z,5.90
2018-01-10T07:47:45.917Z,5.70
2018-01-10T07:48:45.894Z,15.10
2018-01-10T07:49:45.870Z,9.60
2018-01-10T07:50:45.844Z,6.00
2018-01-10T07:51:45.815Z,4.90
2018-01-10T07:52:45.796Z,17.40
2018-01-10T07:53:45.766Z,11.30
2018-01-10T07:54:45.739Z,13.60
2018-01-10T07:55:45.711Z,8.60
2018-01-10T07:56:45.686Z,40.40
2018-01-10T07:57:45.657Z,5.70
2018-01-10T07:58:45.636Z,19.10
2018-01-10T07:59:45.606Z,29.50
2018-01-10T08:00:45.582Z,15.50
2018-01-10T08:01:45.556Z,24.50
2018-01-10T08:02:45.534Z,26.00
2018-01-10T08:03:45.503Z,12.80
2018-01-10T08:04:45.482Z,33.50
2018-01-10T08:05:45.451Z,18.90
2018-01-10T08:06:45.428Z,21.70
2018-01-10T08:07:45.402Z,33.40
2018-01-10T08:08:45.382Z,19.10
2018-01-10T08:09:45.380Z,12.20
2018-01-10T08:10:45.325Z,7.10
2018-01-10T08:11:45.302Z,18.50
2018-01-10T08:12:45.269Z,9.00
2018-01-10T08:13:45.247Z,5.70
2018-01-10T08:14:45.219Z,5.40
2018-01-10T08:15:45.196Z,9.20
2018-01-10T08:16:45.169Z,6.50
2018-01-10T08:17:45.145Z,11.20
2018-01-10T08:18:45.115Z,4.60
2018-01-10T08:19:45.092Z,5.00
2018-01-10T08:20:45.065Z,7.20
2018-01-10T08:21:45.044Z,5.30
2018-01-10T08:22:45.010Z,5.20
2018-01-10T08:23:44.986Z,5.10
2018-01-10T08:24:44.958Z,5.10
2018-01-10T08:25:44.972Z,4.70
2018-01-10T08:26:44.909Z,4.80
2018-01-10T08:27:44.887Z,7.30
2018-01-10T08:28:44.877Z,14.70
2018-01-10T08:29:44.830Z,6.10
2018-01-10T08:30:44.810Z,5.00
2018-01-10T08:31:44.791Z,5.00
2018-01-10T08:32:44.761Z,4.80
2018-01-10T08:33:44.727Z,5.10
2018-01-10T08:34:44.702Z,15.60
2018-01-10T08:35:44.675Z,4.40
2018-01-10T08:36:44.650Z,12.20
2018-01-10T08:37:44.626Z,24.90
2018-01-10T08:38:44.601Z,15.40
2018-01-10T08:39:44.571Z,6.30
2018-01-10T08:40:44.559Z,4.60
2018-01-10T08:41:44.527Z,4.50
2018-01-10T08:42:44.497Z,5.10
2018-01-10T08:43:44.472Z,8.00
2018-01-10T08:44:44.442Z,9.10
2018-01-10T08:45:44.422Z,6.20
2018-01-10T08:46:44.394Z,16.20
2018-01-10T08:47:44.365Z,26.80
2018-01-10T08:48:44.341Z,6.00
2018-01-10T08:49:44.317Z,24.20
2018-01-10T08:50:44.292Z,14.40
2018-01-10T08:51:44.263Z,9.30
2018-01-10T08:52:44.237Z,8.50
2018-01-10T08:53:44.213Z,4.70
2018-01-10T08:54:44.186Z,5.00
2018-01-10T08:55:44.159Z,4.50
2018-01-10T08:56:44.139Z,23.20
2018-01-10T08:57:44.108Z,17.00
2018-01-10T08:58:44.085Z,20.00
2018-01-10T08:59:44.058Z,39.00
2018-01-10T09:00:44.044Z,16.30
2018-01-10T09:01:44.007Z,13.00
2018-01-10T09:02:44.007Z,5.80
2018-01-10T09:03:43.955Z,13.80
2018-01-10T09:04:43.934Z,8.40
2018-01-10T09:05:43.908Z,11.70
2018-01-10T09:06:43.877Z,7.40
2018-01-10T09:07:43.857Z,8.20
2018-01-10T09:08:43.827Z,5.40
2018-01-10T09:09:43.808Z,6.50
2018-01-10T09:10:43.778Z,4.50
2018-01-10T09:11:43.755Z,4.90
2018-01-10T09:12:43.725Z,4.20
2018-01-10T09:13:43.707Z,4.60
2018-01-10T09:14:43.674Z,4.10
2018-01-10T09:15:43.653Z,4.20
2018-01-10T09:16:43.625Z,5.00
2018-01-10T09:17:43.603Z,4.70
2018-01-10T09:18:43.575Z,4.50
2018-01-10T09:19:43.555Z,3.80
2018-01-10T09:20:43.524Z,4.30
2018-01-10T09:21:43.504Z,3.90
2018-01-10T09:22:43.475Z,4.30
2018-01-10T09:23:43.447Z,3.90
2018-01-10T09:24:43.423Z,4.30
2018-01-10T09:25:43.405Z,4.00
2018-01-10T09:26:43.412Z,3.90
2018-01-10T09:27:43.349Z,3.70
2018-01-10T09:28:43.326Z,4.10
2018-01-10T09:29:43.300Z,4.00
2018-01-10T09:30:43.274Z,3.70
2018-01-10T09:31:43.268Z,3.80
2018-01-10T09:32:43.224Z,3.80
2018-01-10T09:33:43.198Z,4.10
2018-01-10T09:34:43.172Z,4.30
2018-01-10T09:35:43.150Z,4.40
2018-01-10T09:36:43.121Z,4.60
2018-01-10T09:37:43.099Z,4.00
2018-01-10T09:38:43.075Z,3.70
2018-01-10T09:39:43.046Z,3.80
2018-01-10T09:40:43.019Z,3.90
2018-01-10T09:41:42.999Z,4.20
2018-01-10T09:42:42.976Z,4.20
2018-01-10T09:43:42.947Z,4.40
2018-01-10T09:44:42.919Z,4.30
2018-01-10T09:45:42.902Z,4.50
2018-01-10T09:46:42.873Z,4.20
2018-01-10T09:47:42.844Z,4.00
2018-01-10T09:48:42.820Z,3.70
2018-01-10T09:49:42.797Z,4.10
2018-01-10T09:50:42.771Z,4.20
2018-01-10T09:51:42.745Z,4.20
2018-01-10T09:52:42.722Z,3.60
2018-01-10T09:53:42.700Z,4.40
2018-01-10T09:54:42.669Z,4.00
2018-01-10T09:55:42.649Z,4.50
2018-01-10T09:56:42.622Z,3.60
2018-01-10T09:57:42.594Z,3.80
2018-01-10T09:58:42.569Z,3.80
2018-01-10T09:59:42.548Z,4.00
2018-01-10T10:00:42.520Z,3.70
2018-01-10T10:01:42.493Z,4.60
2018-01-10T10:02:42.471Z,3.90
2018-01-10T10:03:42.448Z,3.60
2018-01-10T10:04:42.421Z,3.60
2018-01-10T10:05:42.399Z,3.80
2018-01-10T10:06:42.373Z,4.40
2018-01-10T10:07:42.345Z,4.40
2018-01-10T10:08:42.326Z,3.60
2018-01-10T10:09:42.292Z,4.00
2018-01-10T10:10:42.272Z,4.00
2018-01-10T10:11:42.243Z,4.50
2018-01-10T10:12:42.220Z,4.10
2018-01-10T10:13:42.191Z,4.10
2018-01-10T10:14:42.172Z,3.70
2018-01-10T10:15:42.143Z,4.00
2018-01-10T10:16:42.123Z,4.60
2018-01-10T10:17:42.099Z,4.00
2018-01-10T10:18:42.070Z,4.60
2018-01-10T10:19:42.051Z,4.30
2018-01-10T10:20:42.019Z,4.50
2018-01-10T10:21:41.994Z,4.50
2018-01-10T10:22:41.968Z,4.10
2018-01-10T10:23:41.945Z,3.50
2018-01-10T10:24:41.919Z,3.80
2018-01-10T10:25:41.902Z,4.00
2018-01-10T10:26:41.864Z,4.30
2018-01-10T10:27:41.847Z,4.00
2018-01-10T10:28:41.818Z,4.00
2018-01-10T10:29:41.797Z,4.20
2018-01-10T10:30:41.770Z,3.70
2018-01-10T10:31:41.746Z,3.60
2018-01-10T10:32:41.720Z,3.80
2018-01-10T10:33:41.698Z,3.60
2018-01-10T10:34:41.672Z,4.10
2018-01-10T10:35:41.652Z,4.00
2018-01-10T10:36:41.619Z,3.30
2018-01-10T10:37:41.599Z,3.30
2018-01-10T10:38:41.571Z,3.60
2018-01-10T10:39:41.549Z,3.70
2018-01-10T10:40:41.522Z,3.60
2018-01-10T10:41:41.501Z,3.80
2018-01-10T10:42:41.475Z,3.80
2018-01-10T10:43:41.453Z,3.50
2018-01-10T10:44:41.428Z,3.00
2018-01-10T10:45:41.401Z,3.30
2018-01-10T10:46:41.375Z,3.40
2018-01-10T10:47:41.359Z,3.40
2018-01-10T10:48:41.332Z,3.70
2018-01-10T10:49:41.301Z,3.90
2018-01-10T10:50:41.295Z,3.60
2018-01-10T10:51:41.251Z,3.10
2018-01-10T10:52:41.230Z,3.50
2018-01-10T10:53:41.210Z,3.20
2018-01-10T10:54:41.184Z,3.30
2018-01-10T10:55:41.152Z,3.80
2018-01-10T10:56:41.133Z,3.30
2018-01-10T10:57:41.106Z,3.70
2018-01-10T10:58:41.082Z,3.30
2018-01-10T10:59:41.055Z,3.10
2018-01-10T11:00:41.034Z,3.60
2018-01-10T11:01:41.006Z,3.90
2018-01-10T11:02:40.989Z,3.10
2018-01-10T11:03:40.951Z,4.00
2018-01-10T11:04:40.936Z,3.20
2018-01-10T11:05:40.906Z,3.10
2018-01-10T11:06:40.888Z,2.60
2018-01-10T11:07:40.861Z,3.30
2018-01-10T11:08:40.837Z,3.20
2018-01-10T11:09:40.814Z,3.00
2018-01-10T11:10:40.786Z,3.40
2018-01-10T11:11:40.765Z,2.90
2018-01-10T11:12:40.739Z,3.10
2018-01-10T11:13:40.713Z,3.40
2018-01-10T11:14:40.688Z,3.40
2018-01-10T11:15:40.665Z,3.50
2018-01-10T11:16:40.639Z,3.60
2018-01-10T11:17:40.620Z,3.20
2018-01-10T11:18:40.589Z,3.40
2018-01-10T11:19:40.570Z,2.90
2018-01-10T11:20:40.541Z,2.90
2018-01-10T11:21:40.521Z,3.20
2018-01-10T11:22:40.491Z,3.30
2018-01-10T11:23:40.472Z,3.70
2018-01-10T11:24:40.447Z,3.20
2018-01-10T11:25:40.420Z,3.70
2018-01-10T11:26:40.394Z,3.50
2018-01-10T11:27:40.371Z,3.30
2018-01-10T11:28:40.346Z,2.90
2018-01-10T11:29:40.327Z,3.10
2018-01-10T11:30:40.296Z,3.10
2018-01-10T11:31:40.275Z,3.20
2018-01-10T11:32:40.252Z,3.10
2018-01-10T11:33:40.224Z,3.40
2018-01-10T11:34:40.200Z,3.30
2018-01-10T11:35:40.176Z,3.50
2018-01-10T11:36:40.155Z,2.60
2018-01-10T11:37:40.126Z,3.20
2018-01-10T11:38:40.105Z,3.60
2018-01-10T11:39:40.077Z,3.00
2018-01-10T11:40:40.060Z,3.20
2018-01-10T11:41:40.028Z,2.70
2018-01-10T11:42:40.008Z,3.30
2018-01-10T11:43:39.980Z,3.10
2018-01-10T11:44:39.960Z,3.20
2018-01-10T11:45:39.937Z,3.10
2018-01-10T11:46:39.908Z,3.10
2018-01-10T11:47:39.887Z,3.10
2018-01-10T11:48:39.860Z,3.30
2018-01-10T11:49:39.839Z,3.00
2018-01-10T11:50:39.815Z,2.70
2018-01-10T11:51:39.789Z,2.80
2018-01-10T11:52:39.761Z,2.40
2018-01-10T11:53:39.773Z,2.40
2018-01-10T11:54:39.715Z,2.40
2018-01-10T11:55:39.704Z,2.60
2018-01-10T11:56:39.668Z,2.70
2018-01-10T11:57:39.648Z,2.50
2018-01-10T11:58:39.619Z,2.50
2018-01-10T11:59:39.602Z,2.30
2018-01-10T12:00:39.572Z,2.10
2018-01-10T12:01:39.554Z,2.40
2018-01-10T12:02:39.527Z,2.40
2018-01-10T12:03:39.498Z,2.20
2018-01-10T12:04:39.474Z,1.90
2018-01-10T12:05:39.457Z,2.00
2018-01-10T12:06:39.430Z,1.80
2018-01-10T12:07:39.449Z,2.00
2018-01-10T12:08:39.380Z,2.10
2018-01-10T12:09:39.360Z,2.10
2018-01-10T12:10:39.329Z,2.00
2018-01-10T12:11:39.311Z,2.30
2018-01-10T12:12:39.285Z,2.50
2018-01-10T12:13:39.257Z,2.00
2018-01-10T12:14:39.233Z,1.90
2018-01-10T12:15:39.212Z,1.80
2018-01-10T12:16:39.189Z,2.10
2018-01-10T12:17:39.161Z,1.90
2018-01-10T12:18:39.140Z,2.20
2018-01-10T12:19:39.116Z,1.80
2018-01-10T12:20:39.089Z,1.90
2018-01-10T12:21:39.067Z,1.70
2018-01-10T12:22:39.046Z,1.60
2018-01-10T12:23:39.016Z,1.80
2018-01-10T12:24:39.003Z,2.00
2018-01-10T12:25:38.971Z,1.70
2018-01-10T12:26:38.947Z,1.80
2018-01-10T12:27:38.920Z,1.90
2018-01-10T12:28:38.905Z,1.70
2018-01-10T12:29:38.876Z,1.70
2018-01-10T12:30:38.877Z,1.40
2018-01-10T12:31:38.824Z,1.80
2018-01-10T12:32:38.805Z,1.60
2018-01-10T12:33:38.784Z,1.70
2018-01-10T12:34:38.756Z,1.80
2018-01-10T12:35:38.728Z,1.80
2018-01-10T12:36:38.706Z,2.10
2018-01-10T12:37:38.680Z,1.50
2018-01-10T12:38:38.659Z,1.60
2018-01-10T12:39:38.632Z,1.60
2018-01-10T12:40:38.611Z,1.90
2018-01-10T12:41:38.584Z,1.70
2018-01-10T12:42:38.565Z,1.60
2018-01-10T12:43:38.537Z,1.90
2018-01-10T12:44:38.517Z,1.70
2018-01-10T12:45:38.505Z,2.00
2018-01-10T12:46:38.470Z,1.70
2018-01-10T12:47:38.448Z,1.40
2018-01-10T12:48:38.429Z,1.80
2018-01-10T12:49:38.392Z,1.60
2018-01-10T12:50:38.377Z,1.90
2018-01-10T12:51:38.344Z,1.60
2018-01-10T12:52:38.326Z,2.00
2018-01-10T12:53:38.294Z,1.70
2018-01-10T12:54:38.274Z,1.60
2018-01-10T12:55:38.251Z,2.10
2018-01-10T12:56:38.228Z,1.90
2018-01-10T12:57:38.201Z,1.70
2018-01-10T12:58:38.175Z,2.00
2018-01-10T12:59:38.158Z,1.80
2018-01-10T13:00:38.129Z,1.70
2018-01-10T13:01:38.109Z,1.70
2018-01-10T13:02:38.087Z,2.10
2018-01-10T13:03:38.063Z,1.90
2018-01-10T13:04:38.030Z,1.60
2018-01-10T13:05:38.010Z,1.70
2018-01-10T13:06:37.983Z,1.70
2018-01-10T13:07:37.964Z,2.00
2018-01-10T13:08:37.947Z,1.70
2018-01-10T13:09:37.918Z,1.70
2018-01-10T13:10:37.890Z,1.90
2018-01-10T13:11:37.868Z,1.70
2018-01-10T13:12:37.859Z,2.10
2018-01-10T13:13:37.820Z,2.00
2018-01-10T13:14:37.792Z,1.90
2018-01-10T13:15:37.770Z,1.70
2018-01-10T13:16:37.747Z,2.00
2018-01-10T13:17:37.721Z,2.10